createdAt,value
2023-02-23T08:24:05.137Z,90.82
2023-02-23T08:25:05.049Z,90.82
2023-02-23T08:26:05.027Z,90.82
2023-02-23T08:27:05.001Z,90.82
2023-02-23T08:28:05.021Z,90.72
2023-02-23T08:29:05.003Z,91.03
2023-02-23T08:30:05.043Z,90.92
2023-02-23T08:31:05.028Z,90.72
2023-02-23T08:32:05.047Z,90.61
2023-02-23T08:33:04.936Z,90.51
2023-02-23T08:34:04.898Z,90.51
2023-02-23T08:35:04.881Z,90.72
2023-02-23T08:36:04.903Z,90.82
2023-02-23T08:37:04.902Z,90.72
2023-02-23T08:38:04.881Z,91.30
2023-02-23T08:39:04.860Z,91.03
2023-02-23T08:40:04.841Z,90.82
2023-02-23T08:41:04.839Z,90.67
2023-02-23T08:42:04.806Z,90.99
2023-02-23T08:43:04.810Z,91.19
2023-02-23T08:44:04.789Z,91.30
2023-02-23T08:45:04.767Z,91.50
2023-02-23T08:46:04.820Z,91.34
2023-02-23T08:47:04.743Z,91.19
2023-02-23T08:48:04.750Z,91.30
2023-02-23T08:49:04.695Z,91.19
2023-02-23T08:50:04.673Z,91.30
2023-02-23T08:51:04.689Z,91.13
2023-02-23T08:52:04.696Z,91.40
2023-02-23T08:53:04.634Z,91.34
2023-02-23T08:54:04.652Z,90.88
2023-02-23T08:55:04.604Z,90.67
2023-02-23T08:56:04.586Z,90.78
2023-02-23T08:57:04.572Z,90.47
2023-02-23T08:58:04.563Z,90.37
2023-02-23T08:59:04.554Z,90.37
2023-02-23T09:00:04.568Z,90.57
2023-02-23T09:01:04.612Z,90.57
2023-02-23T09:02:04.809Z,90.37
2023-02-23T09:03:04.501Z,90.37
2023-02-23T09:04:04.509Z,90.06
2023-02-23T09:05:04.524Z,89.85
2023-02-23T09:06:04.492Z,90.06
2023-02-23T09:07:04.487Z,90.06
2023-02-23T09:08:04.487Z,90.16
2023-02-23T09:09:04.425Z,90.16
2023-02-23T09:10:04.392Z,90.37
2023-02-23T09:11:04.435Z,90.47
2023-02-23T09:12:04.378Z,90.37
2023-02-23T09:13:04.382Z,90.16
2023-02-23T09:14:04.367Z,89.95
2023-02-23T09:15:04.325Z,89.95
2023-02-23T09:16:04.473Z,89.95
2023-02-23T09:17:04.354Z,89.95
2023-02-23T09:18:04.329Z,90.16
2023-02-23T09:19:04.363Z,90.16
2023-02-23T09:20:04.277Z,90.33
2023-02-23T09:21:04.285Z,90.43
2023-02-23T09:22:04.230Z,90.43
2023-02-23T09:23:04.249Z,90.64
2023-02-23T09:24:04.225Z,90.64
2023-02-23T09:25:04.223Z,90.64
2023-02-23T09:26:04.241Z,90.43
2023-02-23T09:27:04.200Z,90.33
2023-02-23T09:28:04.182Z,90.33
2023-02-23T09:29:04.175Z,90.12
2023-02-23T09:30:04.183Z,90.12
2023-02-23T09:31:04.237Z,90.12
2023-02-23T09:32:04.272Z,90.12
2023-02-23T09:33:04.099Z,90.12
2023-02-23T09:34:04.099Z,90.01
2023-02-23T09:35:04.111Z,90.01
2023-02-23T09:36:04.052Z,89.71
2023-02-23T09:37:04.068Z,89.71
2023-02-23T09:38:04.048Z,89.81
2023-02-23T09:39:04.036Z,89.61
2023-02-23T09:40:04.047Z,89.50
2023-02-23T09:41:04.008Z,89.56
2023-02-23T09:42:04.001Z,89.67
2023-02-23T09:43:04.006Z,89.56
2023-02-23T09:44:03.938Z,89.36
2023-02-23T09:45:03.956Z,89.15
2023-02-23T09:46:03.951Z,89.36
2023-02-23T09:47:03.925Z,89.56
2023-02-23T09:48:03.896Z,89.77
2023-02-23T09:49:03.877Z,89.67
2023-02-23T09:50:03.884Z,89.36
2023-02-23T09:51:03.835Z,89.46
